Time;durP1;ratioP1;P1;durP2;ratioP2;P2;SDS_P1;SDS_P2;PMS_P1;PMS_P2;Temp;Humidity;BMP_temperature;BMP_pressure;BME280_temperature;BME280_humidity;BME280_pressure;Samples;Min_cycle;Max_cycle;Signal;HPM_P1;HPM_P2
2021/05/20 00:02:20;;;;;;;3.00;1.13;;;;;;;;;;4986708;28;20078;-52
2021/05/20 00:04:48;;;;;;;1.60;1.00;;;;;;;;;;4994827;28;20073;-53
2021/05/20 00:07:15;;;;;;;2.42;1.30;;;;;;;;;;4982959;28;20061;-52
2021/05/20 00:09:42;;;;;;;2.60;1.40;;;;;;;;;;4975055;28;20055;-50
2021/05/20 00:12:09;;;;;;;2.63;1.30;;;;;;;;;;4975025;28;20051;-51
2021/05/20 00:14:36;;;;;;;2.15;1.38;;;;;;;;;;4974974;28;20046;-52
2021/05/20 00:17:02;;;;;;;1.30;1.13;;;;;;;;;;4974845;28;20058;-49
2021/05/20 00:19:29;;;;;;;1.45;1.05;;;;;;;;;;4973604;28;20098;-49
2021/05/20 00:21:56;;;;;;;3.00;1.20;;;;;;;;;;4974844;28;20057;-51
2021/05/20 00:24:23;;;;;;;3.00;1.40;;;;;;;;;;4974582;28;20051;-53
2021/05/20 00:26:50;;;;;;;2.25;1.20;;;;;;;;;;4974570;28;20117;-49
2021/05/20 00:29:17;;;;;;;2.58;1.60;;;;;;;;;;4974536;28;20055;-49
2021/05/20 00:31:44;;;;;;;3.17;1.70;;;;;;;;;;4974069;28;20094;-50
2021/05/20 00:34:10;;;;;;;4.75;1.80;;;;;;;;;;4974672;28;20055;-48
2021/05/20 00:36:37;;;;;;;2.83;1.48;;;;;;;;;;4974264;28;20571;-49
2021/05/20 00:39:04;;;;;;;2.97;1.52;;;;;;;;;;4973282;28;20043;-49
2021/05/20 00:41:32;;;;;;;2.60;1.40;;;;;;;;;;4994723;23;20692;-47
2021/05/20 00:43:58;;;;;;;3.78;1.63;;;;;;;;;;5030602;28;20099;-44
2021/05/20 00:46:25;;;;;;;2.45;1.40;;;;;;;;;;5012417;28;20080;-45
2021/05/20 00:48:52;;;;;;;3.80;1.67;;;;;;;;;;5012439;28;20112;-49
2021/05/20 00:51:19;;;;;;;3.20;2.08;;;;;;;;;;5012534;28;20070;-43
2021/05/20 00:53:46;;;;;;;2.88;1.60;;;;;;;;;;5011825;28;20050;-43
2021/05/20 00:56:14;;;;;;;4.13;1.63;;;;;;;;;;5015736;28;20120;-46
2021/05/20 00:58:43;;;;;;;2.33;1.35;;;;;;;;;;5012256;28;20065;-47
2021/05/20 01:01:10;;;;;;;3.05;1.35;;;;;;;;;;5030743;28;20053;-44
2021/05/20 01:03:37;;;;;;;2.55;1.30;;;;;;;;;;5032417;28;20057;-45
2021/05/20 01:06:04;;;;;;;3.28;1.45;;;;;;;;;;5032623;28;20099;-43
2021/05/20 01:08:31;;;;;;;5.60;2.08;;;;;;;;;;5026660;28;20137;-45
2021/05/20 01:10:58;;;;;;;3.28;1.45;;;;;;;;;;5021258;28;20058;-46
2021/05/20 01:13:25;;;;;;;2.20;1.42;;;;;;;;;;5011477;28;20054;-46
2021/05/20 01:15:52;;;;;;;4.00;1.40;;;;;;;;;;5013081;28;20494;-42
2021/05/20 01:18:19;;;;;;;3.75;1.67;;;;;;;;;;5002233;28;20088;-43
2021/05/20 01:20:45;;;;;;;2.83;1.75;;;;;;;;;;5031252;28;20067;-49
2021/05/20 01:23:14;;;;;;;2.75;1.75;;;;;;;;;;5032158;28;20080;-46
2021/05/20 01:25:42;;;;;;;4.53;2.20;;;;;;;;;;5031849;28;20052;-45
2021/05/20 01:28:10;;;;;;;3.10;1.90;;;;;;;;;;5014342;28;20046;-47
2021/05/20 01:30:38;;;;;;;3.47;2.00;;;;;;;;;;5012267;28;20057;-46
2021/05/20 01:33:06;;;;;;;4.15;2.05;;;;;;;;;;5011903;28;20507;-45
2021/05/20 01:35:33;;;;;;;3.67;2.13;;;;;;;;;;5013795;28;20052;-47
2021/05/20 01:40:48;;;;;;;4.18;1.90;;;;;;;;;;5031531;28;20104;-45
2021/05/20 01:43:14;;;;;;;3.05;1.80;;;;;;;;;;5030632;28;20114;-48
2021/05/20 01:45:41;;;;;;;4.85;2.00;;;;;;;;;;5024198;28;20046;-47
2021/05/20 01:48:08;;;;;;;2.58;1.77;;;;;;;;;;5010875;28;20128;-48
2021/05/20 01:50:35;;;;;;;5.13;2.05;;;;;;;;;;5011810;28;20124;-49
2021/05/20 01:53:02;;;;;;;2.70;1.83;;;;;;;;;;5011737;28;20058;-53
2021/05/20 01:55:29;;;;;;;2.60;1.73;;;;;;;;;;4996260;28;20050;-47
2021/05/20 01:57:56;;;;;;;4.95;1.83;;;;;;;;;;5010846;28;20093;-51
2021/05/20 02:00:22;;;;;;;2.55;1.50;;;;;;;;;;5021970;28;20045;-46
2021/05/20 02:02:49;;;;;;;3.17;1.75;;;;;;;;;;5031179;28;20052;-49
2021/05/20 02:05:16;;;;;;;3.35;1.67;;;;;;;;;;5031115;28;20104;-44
2021/05/20 02:07:43;;;;;;;3.20;1.60;;;;;;;;;;5021358;28;20096;-46
2021/05/20 02:10:10;;;;;;;1.95;1.40;;;;;;;;;;5010248;28;20057;-46
2021/05/20 02:12:37;;;;;;;2.08;1.48;;;;;;;;;;5011193;28;20058;-46
2021/05/20 02:15:04;;;;;;;2.28;1.63;;;;;;;;;;5011280;28;20084;-49
2021/05/20 02:17:32;;;;;;;2.25;1.33;;;;;;;;;;5010680;28;20502;-47
2021/05/20 02:19:58;;;;;;;3.05;1.60;;;;;;;;;;5011196;28;20049;-45
2021/05/20 02:22:25;;;;;;;1.77;1.30;;;;;;;;;;5011333;28;20135;-46
2021/05/20 02:24:52;;;;;;;2.40;1.27;;;;;;;;;;5011212;28;20070;-45
2021/05/20 02:27:19;;;;;;;3.25;1.38;;;;;;;;;;5025092;28;20111;-46
2021/05/20 02:29:46;;;;;;;1.75;1.17;;;;;;;;;;5012232;28;20065;-51
2021/05/20 02:32:13;;;;;;;2.88;1.50;;;;;;;;;;5010942;28;20057;-47
2021/05/20 02:34:39;;;;;;;1.90;1.25;;;;;;;;;;5011130;28;20054;-46
2021/05/20 02:37:06;;;;;;;3.08;1.35;;;;;;;;;;5010003;28;20100;-50
2021/05/20 02:39:33;;;;;;;2.35;1.30;;;;;;;;;;5030155;28;20049;-50
2021/05/20 02:42:00;;;;;;;1.70;1.10;;;;;;;;;;5030597;28;20045;-49
2021/05/20 02:44:27;;;;;;;1.83;1.20;;;;;;;;;;5030693;28;20069;-50
2021/05/20 02:46:54;;;;;;;4.00;1.10;;;;;;;;;;5027036;28;20050;-49
2021/05/20 02:49:21;;;;;;;1.48;1.25;;;;;;;;;;5011004;28;20450;-50
2021/05/20 02:51:48;;;;;;;2.22;1.10;;;;;;;;;;5009466;28;20512;-50
2021/05/20 02:54:15;;;;;;;1.67;1.02;;;;;;;;;;5009464;28;20527;-51
2021/05/20 02:56:41;;;;;;;3.25;1.30;;;;;;;;;;5024191;28;20053;-49
2021/05/20 02:59:10;;;;;;;1.92;1.25;;;;;;;;;;5026872;28;20103;-51
2021/05/20 03:01:44;;;;;;;3.08;1.10;;;;;;;;;;5034455;28;20045;-48
2021/05/20 03:04:11;;;;;;;1.35;1.02;;;;;;;;;;5034556;28;20119;-49
2021/05/20 03:06:38;;;;;;;2.05;1.20;;;;;;;;;;5031223;28;20057;-54
2021/05/20 03:09:07;;;;;;;1.60;1.23;;;;;;;;;;5014602;28;20597;-51
2021/05/20 03:11:34;;;;;;;1.55;1.00;;;;;;;;;;5014614;28;20104;-52
2021/05/20 03:14:00;;;;;;;2.22;1.05;;;;;;;;;;5014266;28;20050;-49
2021/05/20 03:16:28;;;;;;;2.53;1.30;;;;;;;;;;5013711;28;20061;-48
2021/05/20 03:18:55;;;;;;;1.10;0.95;;;;;;;;;;5014309;28;20050;-51
2021/05/20 03:21:22;;;;;;;2.08;1.25;;;;;;;;;;5014163;28;20389;-48
2021/05/20 03:23:49;;;;;;;1.65;1.20;;;;;;;;;;5019667;28;20049;-52
2021/05/20 03:26:16;;;;;;;1.92;1.20;;;;;;;;;;5034059;28;20510;-49
2021/05/20 03:28:43;;;;;;;2.03;1.20;;;;;;;;;;5027884;28;20080;-50
2021/05/20 03:31:09;;;;;;;2.22;0.90;;;;;;;;;;5014208;28;20050;-48
2021/05/20 03:33:40;;;;;;;2.65;1.10;;;;;;;;;;5014080;28;20531;-52
2021/05/20 03:36:07;;;;;;;1.33;1.00;;;;;;;;;;5013319;28;20438;-48
2021/05/20 03:38:34;;;;;;;2.90;0.90;;;;;;;;;;5013375;28;20426;-51
2021/05/20 03:41:01;;;;;;;3.00;1.15;;;;;;;;;;5014415;28;20057;-49
2021/05/20 03:43:31;;;;;;;2.70;0.90;;;;;;;;;;5013931;28;20057;-49
2021/05/20 03:46:19;;;;;;;2.05;1.08;;;;;;;;;;5013730;28;20141;-51
2021/05/20 03:48:46;;;;;;;2.05;1.05;;;;;;;;;;5028797;28;20128;-48
2021/05/20 03:51:14;;;;;;;1.90;0.90;;;;;;;;;;5013874;28;20061;-51
2021/05/20 03:53:40;;;;;;;4.72;1.20;;;;;;;;;;5016411;28;20132;-50
2021/05/20 03:56:07;;;;;;;3.13;0.95;;;;;;;;;;5015286;28;20077;-47
2021/05/20 03:58:34;;;;;;;1.40;1.00;;;;;;;;;;5012760;28;20057;-49
2021/05/20 04:01:01;;;;;;;1.50;0.90;;;;;;;;;;5031135;28;20073;-50
2021/05/20 04:03:28;;;;;;;1.95;0.90;;;;;;;;;;5034079;28;20049;-48
2021/05/20 04:05:56;;;;;;;2.58;1.40;;;;;;;;;;5033355;28;20103;-48
2021/05/20 04:08:23;;;;;;;1.00;0.90;;;;;;;;;;5021454;28;20124;-49
2021/05/20 04:10:50;;;;;;;1.58;0.90;;;;;;;;;;5024612;28;20085;-51
2021/05/20 04:13:27;;;;;;;1.90;1.10;;;;;;;;;;5013678;28;20518;-48
2021/05/20 04:15:54;;;;;;;1.67;0.90;;;;;;;;;;5013691;28;20478;-53
2021/05/20 04:18:21;;;;;;;1.75;1.02;;;;;;;;;;5013459;28;20050;-49
2021/05/20 04:20:48;;;;;;;1.98;1.10;;;;;;;;;;5013927;28;20054;-49
2021/05/20 04:23:15;;;;;;;2.38;1.10;;;;;;;;;;5013564;28;20054;-51
2021/05/20 04:25:42;;;;;;;1.60;1.02;;;;;;;;;;5013561;28;20075;-50
2021/05/20 04:28:09;;;;;;;1.45;1.10;;;;;;;;;;5013316;28;20046;-47
2021/05/20 04:30:36;;;;;;;2.72;1.20;;;;;;;;;;5013577;28;20111;-53
2021/05/20 04:33:04;;;;;;;2.25;1.13;;;;;;;;;;5028663;28;20054;-48
2021/05/20 04:35:31;;;;;;;1.95;1.23;;;;;;;;;;5013378;28;20058;-51
2021/05/20 04:37:58;;;;;;;1.50;1.05;;;;;;;;;;5013097;28;20050;-48
2021/05/20 04:40:25;;;;;;;2.95;1.20;;;;;;;;;;5013171;28;20060;-48
2021/05/20 04:42:52;;;;;;;3.33;1.40;;;;;;;;;;5013064;28;20081;-48
2021/05/20 04:45:19;;;;;;;2.78;1.27;;;;;;;;;;5013240;28;20185;-48
2021/05/20 04:47:46;;;;;;;2.03;1.25;;;;;;;;;;5012706;28;20073;-47
2021/05/20 04:50:13;;;;;;;4.30;1.70;;;;;;;;;;5013208;28;20077;-47
2021/05/20 04:52:41;;;;;;;3.97;2.00;;;;;;;;;;5013028;28;20058;-48
2021/05/20 04:55:08;;;;;;;4.18;1.50;;;;;;;;;;5012863;28;20157;-51
2021/05/20 04:57:38;;;;;;;2.72;1.48;;;;;;;;;;5012567;28;20437;-48
2021/05/20 05:00:06;;;;;;;3.15;1.70;;;;;;;;;;5021275;28;20041;-49
2021/05/20 05:02:33;;;;;;;3.90;1.60;;;;;;;;;;5032592;28;20045;-49
2021/05/20 05:05:00;;;;;;;2.03;1.40;;;;;;;;;;5032594;28;20469;-51
2021/05/20 05:07:27;;;;;;;3.72;1.92;;;;;;;;;;5031168;28;20058;-46
2021/05/20 05:09:54;;;;;;;2.63;1.80;;;;;;;;;;5011527;28;20455;-49
2021/05/20 05:12:20;;;;;;;3.42;1.58;;;;;;;;;;5012618;28;20120;-48
2021/05/20 05:14:47;;;;;;;3.10;1.80;;;;;;;;;;5012818;28;20058;-43
2021/05/20 05:17:14;;;;;;;3.15;1.80;;;;;;;;;;5012252;28;20147;-47
2021/05/20 05:19:41;;;;;;;4.70;1.90;;;;;;;;;;5016030;28;20077;-49
2021/05/20 05:22:08;;;;;;;3.00;1.77;;;;;;;;;;5032194;28;20479;-48
2021/05/20 05:24:35;;;;;;;4.55;1.80;;;;;;;;;;5032608;28;20049;-48
2021/05/20 05:27:04;;;;;;;2.90;2.05;;;;;;;;;;5022935;28;20212;-47
2021/05/20 05:29:33;;;;;;;2.58;1.80;;;;;;;;;;5028038;28;20136;-43
2021/05/20 05:32:00;;;;;;;2.13;1.60;;;;;;;;;;5032238;28;20061;-48
2021/05/20 05:34:27;;;;;;;4.47;1.90;;;;;;;;;;5035122;28;20052;-49
2021/05/20 05:36:54;;;;;;;3.50;1.80;;;;;;;;;;5038277;28;20160;-43
2021/05/20 05:39:21;;;;;;;3.55;1.80;;;;;;;;;;5033197;28;20462;-48
2021/05/20 05:41:48;;;;;;;3.65;1.70;;;;;;;;;;5031918;28;20095;-47
2021/05/20 05:44:15;;;;;;;3.20;1.60;;;;;;;;;;5030452;28;20053;-49
2021/05/20 05:46:43;;;;;;;2.72;2.10;;;;;;;;;;5025369;28;20415;-48
2021/05/20 05:49:18;;;;;;;3.40;1.70;;;;;;;;;;5020386;28;20052;-49
2021/05/20 05:51:49;;;;;;;3.90;1.70;;;;;;;;;;5028942;28;20156;-50
2021/05/20 05:54:16;;;;;;;4.72;1.70;;;;;;;;;;5012325;28;20053;-50
2021/05/20 05:56:43;;;;;;;4.28;1.83;;;;;;;;;;5018250;28;20064;-45
2021/05/20 05:59:14;;;;;;;2.90;1.80;;;;;;;;;;5013815;28;20056;-49
2021/05/20 06:01:41;;;;;;;3.20;1.77;;;;;;;;;;4978171;28;20042;-45
2021/05/20 06:04:09;;;;;;;2.83;1.80;;;;;;;;;;5011953;28;20526;-50
2021/05/20 06:06:36;;;;;;;2.40;1.67;;;;;;;;;;5022382;28;20068;-48
2021/05/20 06:09:06;;;;;;;3.50;2.15;;;;;;;;;;5031273;28;20045;-48
2021/05/20 06:11:33;;;;;;;2.58;1.85;;;;;;;;;;5031532;28;20049;-49
2021/05/20 06:14:07;;;;;;;4.93;2.15;;;;;;;;;;5013756;28;20049;-48
2021/05/20 06:16:35;;;;;;;3.78;2.20;;;;;;;;;;5014853;28;20423;-45
2021/05/20 06:19:03;;;;;;;3.00;2.10;;;;;;;;;;5011705;28;20125;-45
2021/05/20 06:21:29;;;;;;;4.15;2.10;;;;;;;;;;5011625;28;20100;-49
2021/05/20 06:24:00;;;;;;;3.70;2.15;;;;;;;;;;5011553;28;20046;-47
2021/05/20 06:26:27;;;;;;;3.17;1.92;;;;;;;;;;5015017;28;20117;-43
2021/05/20 06:28:54;;;;;;;3.83;2.30;;;;;;;;;;5017259;28;20137;-47
2021/05/20 06:31:21;;;;;;;3.78;1.98;;;;;;;;;;5017044;28;20111;-43
2021/05/20 06:33:48;;;;;;;2.95;1.80;;;;;;;;;;5011703;28;20077;-45
2021/05/20 06:36:16;;;;;;;3.22;1.80;;;;;;;;;;5024295;28;20104;-45
2021/05/20 06:38:42;;;;;;;4.20;1.92;;;;;;;;;;5014209;28;20049;-47
2021/05/20 06:41:09;;;;;;;2.97;1.83;;;;;;;;;;5011523;28;20141;-45
2021/05/20 06:43:37;;;;;;;2.55;1.90;;;;;;;;;;5011083;28;20050;-44
2021/05/20 06:46:04;;;;;;;4.15;1.90;;;;;;;;;;5026451;28;20139;-44
2021/05/20 06:48:31;;;;;;;2.72;1.67;;;;;;;;;;5016064;28;20132;-44
2021/05/20 06:50:58;;;;;;;3.30;1.83;;;;;;;;;;5029030;28;20061;-42
2021/05/20 06:53:26;;;;;;;2.47;1.70;;;;;;;;;;5029496;28;20060;-46
2021/05/20 06:55:56;;;;;;;2.33;1.60;;;;;;;;;;5021071;28;20077;-43
2021/05/20 07:01:12;;;;;;;3.05;1.60;;;;;;;;;;5011272;28;20053;-49
2021/05/20 07:03:42;;;;;;;2.15;1.40;;;;;;;;;;5011131;28;20467;-48
2021/05/20 07:06:10;;;;;;;4.72;1.77;;;;;;;;;;5013341;28;20060;-49
2021/05/20 07:08:38;;;;;;;3.22;1.58;;;;;;;;;;5026335;28;20104;-51
2021/05/20 07:11:05;;;;;;;3.30;1.30;;;;;;;;;;5030756;28;20527;-49
2021/05/20 07:13:32;;;;;;;2.30;1.60;;;;;;;;;;5029001;28;20046;-43
2021/05/20 07:15:59;;;;;;;3.47;1.48;;;;;;;;;;5017873;28;20146;-51
2021/05/20 07:18:27;;;;;;;2.60;1.70;;;;;;;;;;5030668;28;20529;-46
2021/05/20 07:20:54;;;;;;;2.80;1.60;;;;;;;;;;5030947;28;20077;-47
2021/05/20 07:23:21;;;;;;;2.15;1.42;;;;;;;;;;5020868;28;20072;-45
2021/05/20 07:25:48;;;;;;;2.10;1.23;;;;;;;;;;5028851;28;20125;-47
2021/05/20 07:28:15;;;;;;;2.10;1.38;;;;;;;;;;5023332;28;20088;-51
2021/05/20 07:30:42;;;;;;;2.50;1.30;;;;;;;;;;5011397;28;20042;-44
2021/05/20 07:33:11;;;;;;;2.00;1.23;;;;;;;;;;5028753;28;20049;-49
2021/05/20 07:35:38;;;;;;;2.22;1.30;;;;;;;;;;5022416;28;20429;-46
2021/05/20 07:38:05;;;;;;;1.25;0.93;;;;;;;;;;5016791;28;20049;-49
2021/05/20 07:40:32;;;;;;;2.42;1.23;;;;;;;;;;5024148;28;20474;-51
2021/05/20 07:42:59;;;;;;;4.43;1.48;;;;;;;;;;5026808;28;20145;-49
2021/05/20 07:45:27;;;;;;;3.53;2.40;;;;;;;;;;5015104;28;20132;-52
2021/05/20 07:47:54;;;;;;;2.20;1.30;;;;;;;;;;5015036;28;20108;-50
2021/05/20 07:50:21;;;;;;;1.65;1.25;;;;;;;;;;5025071;28;20054;-52
2021/05/20 07:52:48;;;;;;;1.15;0.93;;;;;;;;;;5018522;28;20053;-49
2021/05/20 07:55:15;;;;;;;1.63;1.00;;;;;;;;;;5017310;28;20053;-52
2021/05/20 07:57:42;;;;;;;3.03;1.05;;;;;;;;;;5014025;28;20192;-45
2021/05/20 08:00:10;;;;;;;2.13;0.90;;;;;;;;;;5034139;28;20049;-43
2021/05/20 08:05:28;;;;;;;2.10;1.10;;;;;;;;;;5013198;28;20124;-52
2021/05/20 08:11:03;;;;;;;2.97;1.13;;;;;;;;;;5028130;28;20045;-50
2021/05/20 08:13:29;;;;;;;2.47;1.38;;;;;;;;;;5031259;28;20103;-51
2021/05/20 08:15:56;;;;;;;2.42;1.10;;;;;;;;;;5014904;28;20061;-48
2021/05/20 08:18:23;;;;;;;1.45;0.80;;;;;;;;;;5013932;28;20076;-50
2021/05/20 08:20:50;;;;;;;1.52;1.20;;;;;;;;;;5014350;28;20050;-50
2021/05/20 08:23:17;;;;;;;1.75;1.10;;;;;;;;;;5032748;28;20084;-47
2021/05/20 08:25:44;;;;;;;1.92;1.20;;;;;;;;;;5033917;28;20050;-52
2021/05/20 08:28:11;;;;;;;2.72;1.30;;;;;;;;;;5027817;28;20100;-48
2021/05/20 08:30:38;;;;;;;3.28;1.48;;;;;;;;;;5016992;28;20042;-47
2021/05/20 08:33:05;;;;;;;2.58;1.17;;;;;;;;;;5014432;28;20129;-46
2021/05/20 08:35:32;;;;;;;3.03;1.25;;;;;;;;;;5015032;28;20219;-49
2021/05/20 08:38:00;;;;;;;1.88;1.08;;;;;;;;;;5015056;28;20573;-50
2021/05/20 08:40:27;;;;;;;1.42;0.90;;;;;;;;;;5015260;28;20457;-46
2021/05/20 08:42:54;;;;;;;1.42;0.90;;;;;;;;;;5015547;28;20038;-49
2021/05/20 08:45:25;;;;;;;0.55;0.55;;;;;;;;;;5017232;28;20069;-47
2021/05/20 08:47:53;;;;;;;1.90;0.82;;;;;;;;;;5015601;28;20478;-49
2021/05/20 08:50:22;;;;;;;0.98;0.80;;;;;;;;;;5021817;28;20513;-50
2021/05/20 08:52:49;;;;;;;1.75;0.82;;;;;;;;;;5018716;28;20057;-48
2021/05/20 08:55:17;;;;;;;2.22;0.85;;;;;;;;;;5016793;28;20058;-49
2021/05/20 08:57:44;;;;;;;2.10;0.90;;;;;;;;;;5016823;28;20076;-50
2021/05/20 09:00:16;;;;;;;1.23;1.00;;;;;;;;;;5014513;28;20487;-48
2021/05/20 09:02:43;;;;;;;1.75;0.82;;;;;;;;;;5013887;28;20044;-48
2021/05/20 09:05:11;;;;;;;2.28;1.00;;;;;;;;;;5011797;28;20042;-43
2021/05/20 09:07:40;;;;;;;2.60;1.15;;;;;;;;;;5012011;28;20050;-46
2021/05/20 09:10:14;;;;;;;2.05;1.10;;;;;;;;;;5013239;28;20050;-42
2021/05/20 09:12:41;;;;;;;2.78;1.15;;;;;;;;;;5012363;28;20065;-43
2021/05/20 09:15:12;;;;;;;1.92;1.20;;;;;;;;;;5016222;28;20046;-42
2021/05/20 09:17:38;;;;;;;1.90;1.05;;;;;;;;;;5023301;28;20462;-47
2021/05/20 09:20:06;;;;;;;2.45;0.85;;;;;;;;;;5013170;28;20120;-43
2021/05/20 09:22:35;;;;;;;1.70;0.70;;;;;;;;;;5012885;28;20184;-44
2021/05/20 09:25:02;;;;;;;2.38;0.70;;;;;;;;;;5012235;28;20049;-51
2021/05/20 09:27:34;;;;;;;1.02;0.60;;;;;;;;;;5011449;28;20155;-47
2021/05/20 09:30:11;;;;;;;0.50;0.50;;;;;;;;;;5025457;28;20577;-45
2021/05/20 09:32:41;;;;;;;1.80;0.80;;;;;;;;;;5032499;28;20053;-44
2021/05/20 09:35:09;;;;;;;1.38;0.80;;;;;;;;;;5032246;28;20045;-48
2021/05/20 09:37:55;;;;;;;1.20;0.70;;;;;;;;;;5016198;28;20050;-45
2021/05/20 09:40:25;;;;;;;0.88;0.73;;;;;;;;;;5011377;28;20411;-44
2021/05/20 09:42:52;;;;;;;4.00;1.00;;;;;;;;;;5009521;28;20100;-49
2021/05/20 09:45:21;;;;;;;0.65;0.55;;;;;;;;;;5011993;28;20518;-43
2021/05/20 09:47:49;;;;;;;1.33;0.75;;;;;;;;;;5010980;28;20054;-46
2021/05/20 09:50:19;;;;;;;1.40;0.60;;;;;;;;;;5017375;28;20054;-48
2021/05/20 09:52:46;;;;;;;0.85;0.70;;;;;;;;;;5014894;28;20052;-47
2021/05/20 09:55:21;;;;;;;1.73;0.80;;;;;;;;;;5015049;28;20057;-48
2021/05/20 09:57:48;;;;;;;1.30;0.80;;;;;;;;;;5020394;28;20072;-47
2021/05/20 10:00:26;;;;;;;2.22;0.80;;;;;;;;;;5012482;28;20139;-49
2021/05/20 10:03:00;;;;;;;1.50;0.63;;;;;;;;;;5016312;28;20053;-49
2021/05/20 10:05:34;;;;;;;2.22;0.70;;;;;;;;;;5014950;28;20049;-47
2021/05/20 10:08:06;;;;;;;0.95;0.65;;;;;;;;;;5020435;28;20406;-46
2021/05/20 10:10:35;;;;;;;2.17;0.88;;;;;;;;;;5011059;28;20073;-43
2021/05/20 10:13:06;;;;;;;0.73;0.60;;;;;;;;;;5012706;28;20073;-50
2021/05/20 10:15:33;;;;;;;0.90;0.63;;;;;;;;;;5013894;28;20108;-46
2021/05/20 10:18:08;;;;;;;1.13;0.57;;;;;;;;;;5012778;28;20060;-44
2021/05/20 10:20:35;;;;;;;2.53;0.73;;;;;;;;;;5015850;28;20495;-47
2021/05/20 10:23:06;;;;;;;1.27;0.70;;;;;;;;;;5011361;28;20060;-48
2021/05/20 10:25:33;;;;;;;1.25;0.63;;;;;;;;;;5016007;28;20080;-44
2021/05/20 10:28:01;;;;;;;1.70;0.70;;;;;;;;;;5016025;28;20049;-45
2021/05/20 10:30:28;;;;;;;1.75;0.80;;;;;;;;;;5016942;28;20066;-45
2021/05/20 10:32:57;;;;;;;1.80;0.45;;;;;;;;;;5017170;28;20064;-49
2021/05/20 10:35:39;;;;;;;0.60;0.50;;;;;;;;;;5030756;28;20132;-50
2021/05/20 10:38:06;;;;;;;0.40;0.40;;;;;;;;;;5016108;28;20076;-47
2021/05/20 10:40:33;;;;;;;2.00;0.60;;;;;;;;;;5028722;28;20049;-47
2021/05/20 10:43:21;;;;;;;0.40;0.40;;;;;;;;;;5022526;28;20391;-51
2021/05/20 10:45:58;;;;;;;0.68;0.50;;;;;;;;;;5035912;28;20045;-45
2021/05/20 10:48:25;;;;;;;0.88;0.60;;;;;;;;;;5015121;28;20436;-48
2021/05/20 10:50:52;;;;;;;1.85;0.50;;;;;;;;;;5023080;28;20065;-50
2021/05/20 10:53:38;;;;;;;0.52;0.50;;;;;;;;;;5031487;28;20076;-44
2021/05/20 10:56:04;;;;;;;1.38;0.50;;;;;;;;;;5011357;28;20050;-46
2021/05/20 10:58:35;;;;;;;7.47;6.35;;;;;;;;;;5021976;28;20052;-49
2021/05/20 11:01:06;;;;;;;0.55;0.40;;;;;;;;;;5017875;28;20046;-41
2021/05/20 11:03:52;;;;;;;2.97;2.00;;;;;;;;;;5011326;28;20603;-47
2021/05/20 11:06:19;;;;;;;2.00;0.85;;;;;;;;;;5014833;28;20653;-42
2021/05/20 11:08:46;;;;;;;1.38;0.60;;;;;;;;;;5011122;28;20053;-42
2021/05/20 11:11:22;;;;;;;3.15;1.92;;;;;;;;;;5025022;28;20056;-47
2021/05/20 11:13:50;;;;;;;0.40;0.40;;;;;;;;;;5013242;28;20084;-43
2021/05/20 11:16:27;;;;;;;0.40;0.40;;;;;;;;;;5012113;28;20080;-44
2021/05/20 11:19:14;;;;;;;0.40;0.20;;;;;;;;;;5014952;28;20068;-48
2021/05/20 11:22:04;;;;;;;0.47;0.30;;;;;;;;;;5014823;28;20372;-46
2021/05/20 11:24:31;;;;;;;1.35;1.00;;;;;;;;;;5014694;28;20049;-46
2021/05/20 11:27:01;;;;;;;1.77;0.88;;;;;;;;;;5014826;28;20052;-47
2021/05/20 11:29:29;;;;;;;0.60;0.50;;;;;;;;;;5014721;28;20508;-47
2021/05/20 11:32:11;;;;;;;1.60;0.30;;;;;;;;;;5014893;28;20478;-48
2021/05/20 11:37:08;;;;;;;0.85;0.30;;;;;;;;;;5014584;28;20054;-44
2021/05/20 11:39:35;;;;;;;0.80;0.60;;;;;;;;;;5014574;28;20462;-46
2021/05/20 11:42:04;;;;;;;0.90;0.50;;;;;;;;;;5014528;28;20053;-43
2021/05/20 11:44:31;;;;;;;0.60;0.30;;;;;;;;;;5013384;28;20112;-50
2021/05/20 11:47:03;;;;;;;0.30;0.30;;;;;;;;;;5014666;28;20538;-47
2021/05/20 11:49:30;;;;;;;0.52;0.40;;;;;;;;;;5013240;28;20053;-45
2021/05/20 11:52:03;;;;;;;0.50;0.40;;;;;;;;;;5013381;28;20058;-47
2021/05/20 11:54:31;;;;;;;0.40;0.30;;;;;;;;;;5012861;28;20050;-45
2021/05/20 11:56:59;;;;;;;0.50;0.40;;;;;;;;;;5012671;28;20105;-48
2021/05/20 11:59:38;;;;;;;0.77;0.40;;;;;;;;;;5013917;28;20050;-45
2021/05/20 12:02:07;;;;;;;0.52;0.50;;;;;;;;;;5013748;28;20046;-47
2021/05/20 12:04:34;;;;;;;2.22;1.67;;;;;;;;;;5015276;28;20049;-47
2021/05/20 12:07:02;;;;;;;3.33;0.50;;;;;;;;;;5012407;28;20080;-43
2021/05/20 12:09:28;;;;;;;0.52;0.22;;;;;;;;;;5013745;28;20128;-44
2021/05/20 12:11:56;;;;;;;0.35;0.30;;;;;;;;;;5014421;28;20084;-45
2021/05/20 12:14:33;;;;;;;0.82;0.30;;;;;;;;;;5012319;28;20479;-43
2021/05/20 12:17:26;;;;;;;1.55;0.40;;;;;;;;;;5017079;28;20502;-47
2021/05/20 12:19:54;;;;;;;0.30;0.30;;;;;;;;;;5026716;28;20057;-48
2021/05/20 12:22:30;;;;;;;0.63;0.50;;;;;;;;;;5033371;28;20111;-42
2021/05/20 12:25:07;;;;;;;0.52;0.40;;;;;;;;;;5013825;28;20522;-48
2021/05/20 12:27:37;;;;;;;0.85;0.85;;;;;;;;;;5020343;28;20099;-49
2021/05/20 12:30:06;;;;;;;1.95;0.52;;;;;;;;;;5032979;28;20087;-51
2021/05/20 12:32:35;;;;;;;1.23;0.60;;;;;;;;;;5037997;28;20132;-49
2021/05/20 12:35:12;;;;;;;0.85;0.60;;;;;;;;;;5047360;28;20042;-47
2021/05/20 12:38:01;;;;;;;0.80;0.38;;;;;;;;;;5012851;28;20779;-49
2021/05/20 12:40:48;;;;;;;0.40;0.40;;;;;;;;;;5013228;28;20054;-42
2021/05/20 12:43:16;;;;;;;1.58;0.50;;;;;;;;;;5013600;28;20192;-46
2021/05/20 12:45:45;;;;;;;0.77;0.70;;;;;;;;;;5011273;28;20488;-46
2021/05/20 12:48:20;;;;;;;0.60;0.60;;;;;;;;;;5020589;28;20045;-45
2021/05/20 12:50:47;;;;;;;2.90;0.65;;;;;;;;;;5012054;28;20050;-49
2021/05/20 12:53:23;;;;;;;0.30;0.30;;;;;;;;;;5016197;28;20050;-45
2021/05/20 12:55:52;;;;;;;1.85;0.38;;;;;;;;;;5014315;28;20053;-45
2021/05/20 12:58:19;;;;;;;0.47;0.47;;;;;;;;;;5013518;28;20101;-48
2021/05/20 13:00:55;;;;;;;0.68;0.55;;;;;;;;;;5013201;28;20598;-45
2021/05/20 13:03:24;;;;;;;0.82;0.60;;;;;;;;;;5010707;28;20104;-48
2021/05/20 13:05:52;;;;;;;1.65;0.40;;;;;;;;;;5015183;28;20045;-48
2021/05/20 13:08:30;;;;;;;2.05;0.50;;;;;;;;;;5012618;28;20061;-46
2021/05/20 13:10:58;;;;;;;0.85;0.60;;;;;;;;;;5013605;28;20072;-47
2021/05/20 13:13:25;;;;;;;0.98;0.50;;;;;;;;;;5024501;28;20103;-51
2021/05/20 13:15:58;;;;;;;0.47;0.45;;;;;;;;;;5015095;28;20077;-46
2021/05/20 13:23:37;;;;;;;1.95;0.50;;;;;;;;;;5013642;28;20042;-48
2021/05/20 13:26:04;;;;;;;0.45;0.40;;;;;;;;;;5010985;28;20115;-46
2021/05/20 13:28:31;;;;;;;2.58;0.40;;;;;;;;;;5014331;28;20049;-47
2021/05/20 13:31:00;;;;;;;0.57;0.35;;;;;;;;;;5016094;28;20164;-47
2021/05/20 13:33:33;;;;;;;1.38;0.40;;;;;;;;;;5014834;28;20045;-47
2021/05/20 13:36:03;;;;;;;0.60;0.30;;;;;;;;;;5012793;28;20046;-51
2021/05/20 13:38:30;;;;;;;1.42;0.38;;;;;;;;;;5015770;28;20071;-48
2021/05/20 13:40:58;;;;;;;0.40;0.40;;;;;;;;;;5017456;28;20054;-49
2021/05/20 13:43:26;;;;;;;0.95;0.40;;;;;;;;;;5021425;28;20042;-49
2021/05/20 13:45:52;;;;;;;0.80;0.50;;;;;;;;;;5015445;28;20153;-49
2021/05/20 13:48:19;;;;;;;0.70;0.40;;;;;;;;;;5010184;28;20088;-47
2021/05/20 13:50:49;;;;;;;0.85;0.50;;;;;;;;;;5016654;28;20532;-49
2021/05/20 13:53:16;;;;;;;0.75;0.68;;;;;;;;;;5014746;28;20057;-48
2021/05/20 13:55:43;;;;;;;0.90;0.60;;;;;;;;;;5012280;28;20050;-50
2021/05/20 13:58:12;;;;;;;0.50;0.50;;;;;;;;;;5016077;28;20423;-48
2021/05/20 14:00:39;;;;;;;0.93;0.65;;;;;;;;;;5020065;28;20049;-45
2021/05/20 14:03:09;;;;;;;0.75;0.60;;;;;;;;;;5013958;28;20699;-47
2021/05/20 14:05:36;;;;;;;2.55;1.33;;;;;;;;;;5021488;28;20052;-49
2021/05/20 14:08:06;;;;;;;1.52;0.73;;;;;;;;;;5010504;28;20042;-50
2021/05/20 14:10:34;;;;;;;1.83;0.75;;;;;;;;;;5031348;28;20176;-47
2021/05/20 14:13:02;;;;;;;0.70;0.47;;;;;;;;;;5029495;28;20085;-49
2021/05/20 14:15:30;;;;;;;0.40;0.40;;;;;;;;;;5029062;28;20056;-49
2021/05/20 14:17:57;;;;;;;1.38;0.70;;;;;;;;;;5010283;28;20787;-51
2021/05/20 14:20:26;;;;;;;2.17;0.70;;;;;;;;;;5015835;28;20426;-47
2021/05/20 14:22:53;;;;;;;2.50;0.55;;;;;;;;;;5010030;28;20045;-48
2021/05/20 14:25:21;;;;;;;1.45;0.50;;;;;;;;;;5009998;28;20057;-44
2021/05/20 14:27:48;;;;;;;3.35;0.70;;;;;;;;;;5014573;28;20132;-44
2021/05/20 14:30:15;;;;;;;0.77;0.40;;;;;;;;;;5014311;28;20045;-43
2021/05/20 14:33:02;;;;;;;0.88;0.82;;;;;;;;;;5024727;28;20042;-42
2021/05/20 14:35:29;;;;;;;0.93;0.60;;;;;;;;;;5020428;28;20447;-43
2021/05/20 14:37:56;;;;;;;0.60;0.50;;;;;;;;;;5018947;28;20408;-50
2021/05/20 14:40:27;;;;;;;0.88;0.50;;;;;;;;;;5014973;28;20085;-44
2021/05/20 14:42:54;;;;;;;1.10;0.40;;;;;;;;;;5014796;28;20042;-46
2021/05/20 14:45:21;;;;;;;0.43;0.40;;;;;;;;;;5011843;28;20136;-43
2021/05/20 14:47:48;;;;;;;1.08;0.50;;;;;;;;;;5010356;28;20054;-49
2021/05/20 14:50:23;;;;;;;1.95;0.40;;;;;;;;;;5014013;28;20571;-46
2021/05/20 14:52:49;;;;;;;0.30;0.30;;;;;;;;;;5011637;28;20153;-46
2021/05/20 15:06:17;;;;;;;1.17;0.68;;;;;;;;;;5029228;28;20046;-53
2021/05/20 15:08:47;;;;;;;0.93;0.50;;;;;;;;;;5028532;28;20100;-55
2021/05/20 15:14:14;;;;;;;1.90;0.50;;;;;;;;;;5026696;28;20471;-49
2021/05/20 15:16:45;;;;;;;0.98;0.50;;;;;;;;;;5025952;28;20443;-50
2021/05/20 15:19:12;;;;;;;1.40;0.75;;;;;;;;;;5014241;28;20500;-46
2021/05/20 15:21:39;;;;;;;1.75;0.70;;;;;;;;;;5017963;28;20407;-45
2021/05/20 15:24:06;;;;;;;2.22;0.80;;;;;;;;;;5018814;28;20482;-50
2021/05/20 15:26:33;;;;;;;2.22;1.05;;;;;;;;;;5050435;28;20049;-46